sensor_id;sensor_type;location;lat;lon;timestamp;P1;durP1;ratioP1;P2;durP2;ratioP2
2386;SDS011;49473;50.772;8.768;2024-01-15T00:00:52;14.23;;;9.60;;
2386;SDS011;49473;50.772;8.768;2024-01-15T00:03:19;13.97;;;9.07;;
2386;SDS011;49473;50.772;8.768;2024-01-15T00:05:46;14.73;;;9.57;;
2386;SDS011;49473;50.772;8.768;2024-01-15T00:08:12;17.83;;;10.70;;
2386;SDS011;49473;50.772;8.768;2024-01-15T00:10:39;16.77;;;8.90;;
2386;SDS011;49473;50.772;8.768;2024-01-15T00:13:06;15.10;;;9.30;;
2386;SDS011;49473;50.772;8.768;2024-01-15T00:15:33;15.57;;;10.00;;
2386;SDS011;49473;50.772;8.768;2024-01-15T00:18:01;15.83;;;10.33;;
2386;SDS011;49473;50.772;8.768;2024-01-15T00:20:28;15.03;;;10.43;;
2386;SDS011;49473;50.772;8.768;2024-01-15T00:22:54;13.37;;;8.40;;
2386;SDS011;49473;50.772;8.768;2024-01-15T00:25:21;18.13;;;9.77;;
2386;SDS011;49473;50.772;8.768;2024-01-15T00:27:48;13.67;;;9.60;;
2386;SDS011;49473;50.772;8.768;2024-01-15T00:30:15;12.50;;;9.20;;
2386;SDS011;49473;50.772;8.768;2024-01-15T00:32:42;14.77;;;9.23;;
2386;SDS011;49473;50.772;8.768;2024-01-15T00:35:10;16.13;;;10.00;;
2386;SDS011;49473;50.772;8.768;2024-01-15T00:37:37;10.83;;;7.90;;
2386;SDS011;49473;50.772;8.768;2024-01-15T00:40:05;15.93;;;8.83;;
2386;SDS011;49473;50.772;8.768;2024-01-15T00:42:32;12.27;;;9.03;;
2386;SDS011;49473;50.772;8.768;2024-01-15T00:45:00;15.20;;;8.93;;
2386;SDS011;49473;50.772;8.768;2024-01-15T00:47:27;13.40;;;8.77;;
2386;SDS011;49473;50.772;8.768;2024-01-15T00:49:54;11.20;;;8.20;;
2386;SDS011;49473;50.772;8.768;2024-01-15T00:52:22;11.13;;;7.73;;
2386;SDS011;49473;50.772;8.768;2024-01-15T00:54:49;13.40;;;9.60;;
2386;SDS011;49473;50.772;8.768;2024-01-15T00:57:15;14.70;;;9.87;;
2386;SDS011;49473;50.772;8.768;2024-01-15T00:59:44;11.03;;;7.80;;
2386;SDS011;49473;50.772;8.768;2024-01-15T01:02:10;12.50;;;8.70;;
2386;SDS011;49473;50.772;8.768;2024-01-15T01:04:37;13.00;;;9.37;;
2386;SDS011;49473;50.772;8.768;2024-01-15T01:07:04;12.13;;;8.13;;
2386;SDS011;49473;50.772;8.768;2024-01-15T01:09:32;12.30;;;7.83;;
2386;SDS011;49473;50.772;8.768;2024-01-15T01:11:58;10.33;;;7.20;;
2386;SDS011;49473;50.772;8.768;2024-01-15T01:14:25;9.57;;;7.30;;
2386;SDS011;49473;50.772;8.768;2024-01-15T01:16:52;11.07;;;7.60;;
2386;SDS011;49473;50.772;8.768;2024-01-15T01:19:18;10.40;;;7.00;;
2386;SDS011;49473;50.772;8.768;2024-01-15T01:21:45;9.40;;;7.37;;
2386;SDS011;49473;50.772;8.768;2024-01-15T01:24:12;11.60;;;7.03;;
2386;SDS011;49473;50.772;8.768;2024-01-15T01:26:40;9.33;;;7.37;;
2386;SDS011;49473;50.772;8.768;2024-01-15T01:29:07;10.77;;;6.50;;
2386;SDS011;49473;50.772;8.768;2024-01-15T01:31:33;10.00;;;7.33;;
2386;SDS011;49473;50.772;8.768;2024-01-15T01:34:00;7.90;;;6.30;;
2386;SDS011;49473;50.772;8.768;2024-01-15T01:36:27;10.03;;;6.37;;
2386;SDS011;49473;50.772;8.768;2024-01-15T01:38:53;10.13;;;7.67;;
2386;SDS011;49473;50.772;8.768;2024-01-15T01:41:20;13.07;;;6.90;;
2386;SDS011;49473;50.772;8.768;2024-01-15T01:43:50;11.67;;;7.80;;
2386;SDS011;49473;50.772;8.768;2024-01-15T01:46:17;11.17;;;6.93;;
2386;SDS011;49473;50.772;8.768;2024-01-15T01:48:43;8.50;;;6.10;;
2386;SDS011;49473;50.772;8.768;2024-01-15T01:51:10;8.33;;;7.13;;
2386;SDS011;49473;50.772;8.768;2024-01-15T01:53:38;9.70;;;6.60;;
2386;SDS011;49473;50.772;8.768;2024-01-15T01:56:05;9.63;;;6.97;;
2386;SDS011;49473;50.772;8.768;2024-01-15T01:58:32;11.77;;;7.40;;
2386;SDS011;49473;50.772;8.768;2024-01-15T02:01:01;8.00;;;6.53;;
2386;SDS011;49473;50.772;8.768;2024-01-15T02:03:28;8.30;;;6.97;;
2386;SDS011;49473;50.772;8.768;2024-01-15T02:05:56;9.90;;;6.60;;
2386;SDS011;49473;50.772;8.768;2024-01-15T02:08:23;8.47;;;6.27;;
2386;SDS011;49473;50.772;8.768;2024-01-15T02:10:49;8.40;;;6.07;;
2386;SDS011;49473;50.772;8.768;2024-01-15T02:13:16;9.07;;;6.90;;
2386;SDS011;49473;50.772;8.768;2024-01-15T02:15:43;8.07;;;5.73;;
2386;SDS011;49473;50.772;8.768;2024-01-15T02:18:11;8.37;;;6.60;;
2386;SDS011;49473;50.772;8.768;2024-01-15T02:20:38;12.17;;;7.80;;
2386;SDS011;49473;50.772;8.768;2024-01-15T02:23:09;7.73;;;6.07;;
2386;SDS011;49473;50.772;8.768;2024-01-15T02:25:37;7.73;;;6.60;;
2386;SDS011;49473;50.772;8.768;2024-01-15T02:28:04;8.67;;;6.73;;
2386;SDS011;49473;50.772;8.768;2024-01-15T02:30:32;9.47;;;6.87;;
2386;SDS011;49473;50.772;8.768;2024-01-15T02:33:03;9.53;;;7.13;;
2386;SDS011;49473;50.772;8.768;2024-01-15T02:35:29;9.13;;;7.10;;
2386;SDS011;49473;50.772;8.768;2024-01-15T02:37:56;9.40;;;5.97;;
2386;SDS011;49473;50.772;8.768;2024-01-15T02:40:24;10.77;;;6.73;;
2386;SDS011;49473;50.772;8.768;2024-01-15T02:42:51;10.87;;;7.47;;
2386;SDS011;49473;50.772;8.768;2024-01-15T02:45:18;12.30;;;8.07;;
2386;SDS011;49473;50.772;8.768;2024-01-15T02:47:45;11.23;;;7.70;;
2386;SDS011;49473;50.772;8.768;2024-01-15T02:50:12;12.23;;;7.63;;
2386;SDS011;49473;50.772;8.768;2024-01-15T02:52:39;9.90;;;7.93;;
2386;SDS011;49473;50.772;8.768;2024-01-15T02:55:06;12.00;;;8.07;;
2386;SDS011;49473;50.772;8.768;2024-01-15T02:57:34;11.40;;;8.30;;
2386;SDS011;49473;50.772;8.768;2024-01-15T03:00:01;13.10;;;7.30;;
2386;SDS011;49473;50.772;8.768;2024-01-15T03:02:28;11.60;;;7.40;;
2386;SDS011;49473;50.772;8.768;2024-01-15T03:04:56;10.20;;;8.00;;
2386;SDS011;49473;50.772;8.768;2024-01-15T03:07:23;11.80;;;7.37;;
2386;SDS011;49473;50.772;8.768;2024-01-15T03:09:49;12.90;;;8.10;;
2386;SDS011;49473;50.772;8.768;2024-01-15T03:12:16;10.30;;;8.20;;
2386;SDS011;49473;50.772;8.768;2024-01-15T03:14:44;11.70;;;7.77;;
2386;SDS011;49473;50.772;8.768;2024-01-15T03:17:11;13.23;;;9.00;;
2386;SDS011;49473;50.772;8.768;2024-01-15T03:19:38;13.40;;;9.07;;
2386;SDS011;49473;50.772;8.768;2024-01-15T03:22:05;12.17;;;8.00;;
2386;SDS011;49473;50.772;8.768;2024-01-15T03:24:33;13.77;;;8.37;;
2386;SDS011;49473;50.772;8.768;2024-01-15T03:27:00;11.73;;;8.37;;
2386;SDS011;49473;50.772;8.768;2024-01-15T03:29:27;12.80;;;8.23;;
2386;SDS011;49473;50.772;8.768;2024-01-15T03:31:55;14.07;;;9.03;;
2386;SDS011;49473;50.772;8.768;2024-01-15T03:34:22;12.63;;;8.63;;
2386;SDS011;49473;50.772;8.768;2024-01-15T03:36:48;12.77;;;7.70;;
2386;SDS011;49473;50.772;8.768;2024-01-15T03:39:15;9.23;;;7.57;;
2386;SDS011;49473;50.772;8.768;2024-01-15T03:41:42;14.00;;;8.40;;
2386;SDS011;49473;50.772;8.768;2024-01-15T03:44:09;12.73;;;8.80;;
2386;SDS011;49473;50.772;8.768;2024-01-15T03:46:35;12.00;;;7.40;;
2386;SDS011;49473;50.772;8.768;2024-01-15T03:49:03;9.90;;;7.60;;
2386;SDS011;49473;50.772;8.768;2024-01-15T03:51:30;11.90;;;7.97;;
2386;SDS011;49473;50.772;8.768;2024-01-15T03:53:57;12.83;;;8.10;;
2386;SDS011;49473;50.772;8.768;2024-01-15T03:56:24;10.77;;;8.03;;
2386;SDS011;49473;50.772;8.768;2024-01-15T03:58:51;12.57;;;8.30;;
2386;SDS011;49473;50.772;8.768;2024-01-15T04:01:17;11.20;;;8.20;;
2386;SDS011;49473;50.772;8.768;2024-01-15T04:03:45;15.53;;;8.10;;
2386;SDS011;49473;50.772;8.768;2024-01-15T04:06:13;10.10;;;7.57;;
2386;SDS011;49473;50.772;8.768;2024-01-15T04:08:39;11.10;;;7.60;;
2386;SDS011;49473;50.772;8.768;2024-01-15T04:11:06;11.63;;;7.30;;
2386;SDS011;49473;50.772;8.768;2024-01-15T04:13:33;10.17;;;8.10;;
2386;SDS011;49473;50.772;8.768;2024-01-15T04:16:00;10.50;;;7.53;;
2386;SDS011;49473;50.772;8.768;2024-01-15T04:18:27;8.10;;;6.70;;
2386;SDS011;49473;50.772;8.768;2024-01-15T04:20:53;12.63;;;8.47;;
2386;SDS011;49473;50.772;8.768;2024-01-15T04:23:21;11.33;;;7.83;;
2386;SDS011;49473;50.772;8.768;2024-01-15T04:25:48;9.87;;;7.43;;
2386;SDS011;49473;50.772;8.768;2024-01-15T04:28:15;11.60;;;7.27;;
2386;SDS011;49473;50.772;8.768;2024-01-15T04:30:41;9.10;;;6.90;;
2386;SDS011;49473;50.772;8.768;2024-01-15T04:33:08;10.83;;;7.17;;
2386;SDS011;49473;50.772;8.768;2024-01-15T04:35:35;10.33;;;7.20;;
2386;SDS011;49473;50.772;8.768;2024-01-15T04:38:02;9.23;;;7.47;;
2386;SDS011;49473;50.772;8.768;2024-01-15T04:40:30;10.03;;;7.50;;
2386;SDS011;49473;50.772;8.768;2024-01-15T04:42:57;9.67;;;7.00;;
2386;SDS011;49473;50.772;8.768;2024-01-15T04:45:23;8.70;;;7.37;;
2386;SDS011;49473;50.772;8.768;2024-01-15T04:47:53;10.77;;;7.13;;
2386;SDS011;49473;50.772;8.768;2024-01-15T04:50:20;10.30;;;7.13;;
2386;SDS011;49473;50.772;8.768;2024-01-15T04:52:47;12.07;;;6.33;;
2386;SDS011;49473;50.772;8.768;2024-01-15T04:55:14;9.97;;;7.37;;
2386;SDS011;49473;50.772;8.768;2024-01-15T04:57:42;11.07;;;7.07;;
2386;SDS011;49473;50.772;8.768;2024-01-15T05:00:09;9.13;;;6.73;;
2386;SDS011;49473;50.772;8.768;2024-01-15T05:02:38;10.47;;;7.43;;
2386;SDS011;49473;50.772;8.768;2024-01-15T05:05:04;7.60;;;6.10;;
2386;SDS011;49473;50.772;8.768;2024-01-15T05:07:31;9.83;;;6.90;;
2386;SDS011;49473;50.772;8.768;2024-01-15T05:09:58;12.10;;;7.97;;
2386;SDS011;49473;50.772;8.768;2024-01-15T05:12:25;9.87;;;7.80;;
2386;SDS011;49473;50.772;8.768;2024-01-15T05:14:53;9.73;;;7.83;;
2386;SDS011;49473;50.772;8.768;2024-01-15T05:17:19;9.23;;;6.90;;
2386;SDS011;49473;50.772;8.768;2024-01-15T05:19:46;9.77;;;7.23;;
2386;SDS011;49473;50.772;8.768;2024-01-15T05:22:13;11.00;;;8.10;;
2386;SDS011;49473;50.772;8.768;2024-01-15T05:24:39;10.53;;;7.43;;
2386;SDS011;49473;50.772;8.768;2024-01-15T05:27:06;10.30;;;6.70;;
2386;SDS011;49473;50.772;8.768;2024-01-15T05:29:33;7.80;;;6.67;;
2386;SDS011;49473;50.772;8.768;2024-01-15T05:32:01;8.27;;;6.57;;
2386;SDS011;49473;50.772;8.768;2024-01-15T05:34:27;11.30;;;7.17;;
2386;SDS011;49473;50.772;8.768;2024-01-15T05:36:54;9.97;;;7.23;;
2386;SDS011;49473;50.772;8.768;2024-01-15T05:39:21;9.03;;;6.80;;
2386;SDS011;49473;50.772;8.768;2024-01-15T05:41:47;11.20;;;7.30;;
2386;SDS011;49473;50.772;8.768;2024-01-15T05:44:14;10.30;;;7.67;;
2386;SDS011;49473;50.772;8.768;2024-01-15T05:46:41;9.63;;;7.30;;
2386;SDS011;49473;50.772;8.768;2024-01-15T05:49:09;9.00;;;6.90;;
2386;SDS011;49473;50.772;8.768;2024-01-15T05:51:36;14.10;;;9.40;;
2386;SDS011;49473;50.772;8.768;2024-01-15T05:54:02;13.97;;;8.70;;
2386;SDS011;49473;50.772;8.768;2024-01-15T05:56:29;15.47;;;9.37;;
2386;SDS011;49473;50.772;8.768;2024-01-15T05:58:56;13.57;;;9.20;;
2386;SDS011;49473;50.772;8.768;2024-01-15T06:01:23;8.63;;;6.87;;
2386;SDS011;49473;50.772;8.768;2024-01-15T06:03:49;13.00;;;9.00;;
2386;SDS011;49473;50.772;8.768;2024-01-15T06:06:17;14.33;;;8.43;;
2386;SDS011;49473;50.772;8.768;2024-01-15T06:08:44;13.97;;;8.77;;
2386;SDS011;49473;50.772;8.768;2024-01-15T06:11:11;10.27;;;6.77;;
2386;SDS011;49473;50.772;8.768;2024-01-15T06:13:37;10.40;;;7.27;;
2386;SDS011;49473;50.772;8.768;2024-01-15T06:16:11;11.87;;;7.70;;
2386;SDS011;49473;50.772;8.768;2024-01-15T06:18:39;11.27;;;7.40;;
2386;SDS011;49473;50.772;8.768;2024-01-15T06:21:06;10.57;;;7.17;;
2386;SDS011;49473;50.772;8.768;2024-01-15T06:23:36;10.93;;;7.50;;
2386;SDS011;49473;50.772;8.768;2024-01-15T06:26:03;9.80;;;7.77;;
2386;SDS011;49473;50.772;8.768;2024-01-15T06:28:30;11.50;;;7.73;;
2386;SDS011;49473;50.772;8.768;2024-01-15T06:30:57;11.17;;;7.43;;
2386;SDS011;49473;50.772;8.768;2024-01-15T06:33:24;8.97;;;7.10;;
2386;SDS011;49473;50.772;8.768;2024-01-15T06:35:50;10.00;;;7.13;;
2386;SDS011;49473;50.772;8.768;2024-01-15T06:38:17;10.53;;;7.70;;
2386;SDS011;49473;50.772;8.768;2024-01-15T06:40:45;10.20;;;8.13;;
2386;SDS011;49473;50.772;8.768;2024-01-15T06:43:13;12.20;;;8.70;;
2386;SDS011;49473;50.772;8.768;2024-01-15T06:45:40;10.60;;;6.83;;
2386;SDS011;49473;50.772;8.768;2024-01-15T06:48:07;11.67;;;7.90;;
2386;SDS011;49473;50.772;8.768;2024-01-15T06:50:33;10.90;;;7.60;;
2386;SDS011;49473;50.772;8.768;2024-01-15T06:53:00;9.87;;;7.73;;
2386;SDS011;49473;50.772;8.768;2024-01-15T06:55:28;15.83;;;9.80;;
2386;SDS011;49473;50.772;8.768;2024-01-15T06:57:56;11.90;;;8.60;;
2386;SDS011;49473;50.772;8.768;2024-01-15T07:00:23;11.27;;;8.10;;
2386;SDS011;49473;50.772;8.768;2024-01-15T07:02:49;12.10;;;8.03;;
2386;SDS011;49473;50.772;8.768;2024-01-15T07:05:16;10.23;;;7.53;;
2386;SDS011;49473;50.772;8.768;2024-01-15T07:07:43;11.47;;;8.20;;
2386;SDS011;49473;50.772;8.768;2024-01-15T07:10:10;12.03;;;8.90;;
2386;SDS011;49473;50.772;8.768;2024-01-15T07:12:37;11.57;;;7.50;;
2386;SDS011;49473;50.772;8.768;2024-01-15T07:15:05;12.43;;;8.73;;
2386;SDS011;49473;50.772;8.768;2024-01-15T07:17:33;17.20;;;9.60;;
2386;SDS011;49473;50.772;8.768;2024-01-15T07:20:01;11.97;;;7.77;;
2386;SDS011;49473;50.772;8.768;2024-01-15T07:22:28;13.83;;;8.67;;
2386;SDS011;49473;50.772;8.768;2024-01-15T07:24:55;13.53;;;8.57;;
2386;SDS011;49473;50.772;8.768;2024-01-15T07:27:22;13.07;;;8.40;;
2386;SDS011;49473;50.772;8.768;2024-01-15T07:29:48;12.80;;;7.97;;
2386;SDS011;49473;50.772;8.768;2024-01-15T07:32:16;11.00;;;8.83;;
2386;SDS011;49473;50.772;8.768;2024-01-15T07:34:43;17.03;;;10.33;;
2386;SDS011;49473;50.772;8.768;2024-01-15T07:37:10;15.10;;;9.70;;
2386;SDS011;49473;50.772;8.768;2024-01-15T07:39:36;11.63;;;8.83;;
2386;SDS011;49473;50.772;8.768;2024-01-15T07:42:03;15.30;;;8.90;;
2386;SDS011;49473;50.772;8.768;2024-01-15T07:44:30;14.77;;;10.13;;
2386;SDS011;49473;50.772;8.768;2024-01-15T07:46:57;11.37;;;8.40;;
2386;SDS011;49473;50.772;8.768;2024-01-15T07:49:25;11.50;;;8.67;;
2386;SDS011;49473;50.772;8.768;2024-01-15T07:51:52;11.30;;;8.70;;
2386;SDS011;49473;50.772;8.768;2024-01-15T07:54:18;12.37;;;9.00;;
2386;SDS011;49473;50.772;8.768;2024-01-15T07:56:54;11.83;;;8.70;;
2386;SDS011;49473;50.772;8.768;2024-01-15T07:59:22;9.87;;;7.10;;
2386;SDS011;49473;50.772;8.768;2024-01-15T08:01:49;14.00;;;8.73;;
2386;SDS011;49473;50.772;8.768;2024-01-15T08:04:15;14.70;;;9.47;;
2386;SDS011;49473;50.772;8.768;2024-01-15T08:06:43;15.90;;;9.87;;
2386;SDS011;49473;50.772;8.768;2024-01-15T08:09:11;16.97;;;10.40;;
2386;SDS011;49473;50.772;8.768;2024-01-15T08:11:39;18.93;;;11.03;;
2386;SDS011;49473;50.772;8.768;2024-01-15T08:14:06;13.43;;;8.67;;
2386;SDS011;49473;50.772;8.768;2024-01-15T08:16:33;15.73;;;9.43;;
2386;SDS011;49473;50.772;8.768;2024-01-15T08:19:00;13.70;;;8.83;;
2386;SDS011;49473;50.772;8.768;2024-01-15T08:21:27;12.43;;;8.37;;
2386;SDS011;49473;50.772;8.768;2024-01-15T08:23:56;14.97;;;10.17;;
2386;SDS011;49473;50.772;8.768;2024-01-15T08:26:23;18.37;;;9.83;;
2386;SDS011;49473;50.772;8.768;2024-01-15T08:28:50;15.73;;;9.73;;
2386;SDS011;49473;50.772;8.768;2024-01-15T08:31:16;15.10;;;9.40;;
2386;SDS011;49473;50.772;8.768;2024-01-15T08:33:43;14.33;;;9.70;;
2386;SDS011;49473;50.772;8.768;2024-01-15T08:36:10;13.20;;;8.70;;
2386;SDS011;49473;50.772;8.768;2024-01-15T08:38:37;13.33;;;8.83;;
2386;SDS011;49473;50.772;8.768;2024-01-15T08:41:05;14.83;;;9.10;;
2386;SDS011;49473;50.772;8.768;2024-01-15T08:43:33;17.97;;;10.10;;
2386;SDS011;49473;50.772;8.768;2024-01-15T08:46:00;15.27;;;9.40;;
2386;SDS011;49473;50.772;8.768;2024-01-15T08:48:27;14.20;;;9.63;;
2386;SDS011;49473;50.772;8.768;2024-01-15T08:50:54;15.17;;;10.37;;
2386;SDS011;49473;50.772;8.768;2024-01-15T08:53:22;12.37;;;9.43;;
2386;SDS011;49473;50.772;8.768;2024-01-15T08:55:48;17.03;;;9.37;;
2386;SDS011;49473;50.772;8.768;2024-01-15T08:58:17;11.77;;;9.20;;
2386;SDS011;49473;50.772;8.768;2024-01-15T09:00:43;12.63;;;9.30;;
2386;SDS011;49473;50.772;8.768;2024-01-15T09:03:10;14.00;;;9.67;;
2386;SDS011;49473;50.772;8.768;2024-01-15T09:05:37;17.63;;;10.77;;
2386;SDS011;49473;50.772;8.768;2024-01-15T09:08:05;12.63;;;9.70;;
2386;SDS011;49473;50.772;8.768;2024-01-15T09:10:32;13.37;;;9.00;;
2386;SDS011;49473;50.772;8.768;2024-01-15T09:12:59;16.33;;;10.90;;
2386;SDS011;49473;50.772;8.768;2024-01-15T09:15:27;17.03;;;11.20;;
2386;SDS011;49473;50.772;8.768;2024-01-15T09:17:54;13.23;;;10.50;;
2386;SDS011;49473;50.772;8.768;2024-01-15T09:20:22;15.60;;;10.60;;
2386;SDS011;49473;50.772;8.768;2024-01-15T09:22:49;17.03;;;10.30;;
2386;SDS011;49473;50.772;8.768;2024-01-15T09:25:15;16.90;;;11.50;;
2386;SDS011;49473;50.772;8.768;2024-01-15T09:27:44;12.57;;;9.80;;
2386;SDS011;49473;50.772;8.768;2024-01-15T09:30:11;15.90;;;9.70;;
2386;SDS011;49473;50.772;8.768;2024-01-15T09:32:39;18.23;;;10.90;;
2386;SDS011;49473;50.772;8.768;2024-01-15T09:35:06;14.70;;;10.50;;
2386;SDS011;49473;50.772;8.768;2024-01-15T09:37:34;13.17;;;10.30;;
2386;SDS011;49473;50.772;8.768;2024-01-15T09:40:00;15.57;;;9.33;;
2386;SDS011;49473;50.772;8.768;2024-01-15T09:42:28;16.10;;;9.77;;
2386;SDS011;49473;50.772;8.768;2024-01-15T09:44:56;13.20;;;9.20;;
2386;SDS011;49473;50.772;8.768;2024-01-15T09:47:23;13.77;;;9.43;;
2386;SDS011;49473;50.772;8.768;2024-01-15T09:49:52;17.33;;;9.57;;
2386;SDS011;49473;50.772;8.768;2024-01-15T09:52:18;12.43;;;9.17;;
2386;SDS011;49473;50.772;8.768;2024-01-15T09:54:46;16.30;;;10.87;;
2386;SDS011;49473;50.772;8.768;2024-01-15T09:57:13;13.47;;;9.20;;
2386;SDS011;49473;50.772;8.768;2024-01-15T09:59:40;14.33;;;10.17;;
2386;SDS011;49473;50.772;8.768;2024-01-15T10:02:08;12.37;;;8.90;;
2386;SDS011;49473;50.772;8.768;2024-01-15T10:04:40;15.37;;;10.40;;
2386;SDS011;49473;50.772;8.768;2024-01-15T10:07:09;11.73;;;9.33;;
2386;SDS011;49473;50.772;8.768;2024-01-15T10:09:41;13.50;;;8.40;;
2386;SDS011;49473;50.772;8.768;2024-01-15T10:12:07;15.40;;;9.40;;
2386;SDS011;49473;50.772;8.768;2024-01-15T10:14:36;10.83;;;8.97;;
2386;SDS011;49473;50.772;8.768;2024-01-15T10:17:08;12.80;;;9.37;;
2386;SDS011;49473;50.772;8.768;2024-01-15T10:19:38;13.97;;;9.10;;
2386;SDS011;49473;50.772;8.768;2024-01-15T10:22:06;12.03;;;8.90;;
2386;SDS011;49473;50.772;8.768;2024-01-15T10:24:35;12.90;;;9.50;;
2386;SDS011;49473;50.772;8.768;2024-01-15T10:27:04;12.60;;;8.73;;
2386;SDS011;49473;50.772;8.768;2024-01-15T10:29:31;11.80;;;8.67;;
2386;SDS011;49473;50.772;8.768;2024-01-15T10:31:58;13.37;;;9.70;;
2386;SDS011;49473;50.772;8.768;2024-01-15T10:34:26;11.60;;;9.00;;
2386;SDS011;49473;50.772;8.768;2024-01-15T10:36:53;12.07;;;8.30;;
2386;SDS011;49473;50.772;8.768;2024-01-15T10:39:21;12.43;;;9.40;;
2386;SDS011;49473;50.772;8.768;2024-01-15T10:41:49;15.63;;;9.97;;
2386;SDS011;49473;50.772;8.768;2024-01-15T10:44:16;10.47;;;8.90;;
2386;SDS011;49473;50.772;8.768;2024-01-15T10:46:43;13.00;;;9.50;;
2386;SDS011;49473;50.772;8.768;2024-01-15T10:49:11;14.03;;;9.20;;
2386;SDS011;49473;50.772;8.768;2024-01-15T10:51:38;17.10;;;9.07;;
2386;SDS011;49473;50.772;8.768;2024-01-15T10:54:05;11.60;;;9.70;;
2386;SDS011;49473;50.772;8.768;2024-01-15T10:56:36;14.93;;;9.93;;
2386;SDS011;49473;50.772;8.768;2024-01-15T10:59:04;11.37;;;9.10;;
2386;SDS011;49473;50.772;8.768;2024-01-15T11:01:33;12.53;;;8.87;;
2386;SDS011;49473;50.772;8.768;2024-01-15T11:04:00;13.17;;;9.20;;
2386;SDS011;49473;50.772;8.768;2024-01-15T11:06:27;12.60;;;8.87;;
2386;SDS011;49473;50.772;8.768;2024-01-15T11:08:54;12.20;;;8.63;;
2386;SDS011;49473;50.772;8.768;2024-01-15T11:11:21;13.30;;;8.77;;
2386;SDS011;49473;50.772;8.768;2024-01-15T11:13:48;10.43;;;8.70;;
2386;SDS011;49473;50.772;8.768;2024-01-15T11:16:18;12.13;;;8.43;;
2386;SDS011;49473;50.772;8.768;2024-01-15T11:21:31;11.57;;;8.80;;
2386;SDS011;49473;50.772;8.768;2024-01-15T11:23:58;11.20;;;8.30;;
2386;SDS011;49473;50.772;8.768;2024-01-15T11:26:32;11.23;;;8.13;;
2386;SDS011;49473;50.772;8.768;2024-01-15T11:29:01;11.90;;;8.17;;
2386;SDS011;49473;50.772;8.768;2024-01-15T11:37:19;12.13;;;8.80;;
2386;SDS011;49473;50.772;8.768;2024-01-15T11:39:48;14.50;;;8.90;;
2386;SDS011;49473;50.772;8.768;2024-01-15T11:42:19;10.60;;;8.00;;
2386;SDS011;49473;50.772;8.768;2024-01-15T11:44:46;15.07;;;9.37;;
2386;SDS011;49473;50.772;8.768;2024-01-15T11:47:14;12.60;;;9.27;;
2386;SDS011;49473;50.772;8.768;2024-01-15T11:50:00;16.63;;;9.97;;
2386;SDS011;49473;50.772;8.768;2024-01-15T11:52:31;12.30;;;9.03;;
2386;SDS011;49473;50.772;8.768;2024-01-15T11:55:00;14.53;;;9.10;;
2386;SDS011;49473;50.772;8.768;2024-01-15T11:57:33;14.33;;;9.40;;
2386;SDS011;49473;50.772;8.768;2024-01-15T12:00:07;15.53;;;9.80;;
2386;SDS011;49473;50.772;8.768;2024-01-15T12:02:38;12.93;;;9.30;;
2386;SDS011;49473;50.772;8.768;2024-01-15T12:05:06;10.90;;;8.73;;
2386;SDS011;49473;50.772;8.768;2024-01-15T12:07:33;12.80;;;9.23;;
2386;SDS011;49473;50.772;8.768;2024-01-15T12:10:00;9.83;;;8.63;;
2386;SDS011;49473;50.772;8.768;2024-01-15T12:12:29;13.80;;;9.03;;
2386;SDS011;49473;50.772;8.768;2024-01-15T12:15:05;10.17;;;7.33;;
2386;SDS011;49473;50.772;8.768;2024-01-15T12:17:32;13.73;;;10.00;;
2386;SDS011;49473;50.772;8.768;2024-01-15T12:20:01;13.57;;;8.57;;
2386;SDS011;49473;50.772;8.768;2024-01-15T12:22:28;11.07;;;7.77;;
2386;SDS011;49473;50.772;8.768;2024-01-15T12:24:54;11.17;;;8.17;;
2386;SDS011;49473;50.772;8.768;2024-01-15T12:27:22;11.60;;;8.10;;
2386;SDS011;49473;50.772;8.768;2024-01-15T12:29:49;10.70;;;8.40;;
2386;SDS011;49473;50.772;8.768;2024-01-15T12:32:16;11.40;;;8.90;;
2386;SDS011;49473;50.772;8.768;2024-01-15T12:34:45;9.53;;;8.10;;
2386;SDS011;49473;50.772;8.768;2024-01-15T12:37:13;10.03;;;8.67;;
2386;SDS011;49473;50.772;8.768;2024-01-15T12:39:42;9.33;;;7.63;;
2386;SDS011;49473;50.772;8.768;2024-01-15T12:42:09;9.57;;;7.53;;
2386;SDS011;49473;50.772;8.768;2024-01-15T12:44:36;11.53;;;7.87;;
2386;SDS011;49473;50.772;8.768;2024-01-15T12:47:04;9.80;;;7.07;;
2386;SDS011;49473;50.772;8.768;2024-01-15T12:49:31;7.47;;;5.30;;
2386;SDS011;49473;50.772;8.768;2024-01-15T12:51:58;6.87;;;5.40;;
2386;SDS011;49473;50.772;8.768;2024-01-15T12:54:26;6.87;;;4.93;;
2386;SDS011;49473;50.772;8.768;2024-01-15T12:56:53;5.13;;;4.47;;
2386;SDS011;49473;50.772;8.768;2024-01-15T12:59:20;5.57;;;4.83;;
2386;SDS011;49473;50.772;8.768;2024-01-15T13:01:46;4.80;;;3.80;;
2386;SDS011;49473;50.772;8.768;2024-01-15T13:04:20;4.07;;;3.67;;
2386;SDS011;49473;50.772;8.768;2024-01-15T13:06:48;4.03;;;2.87;;
2386;SDS011;49473;50.772;8.768;2024-01-15T13:09:15;3.20;;;2.90;;
2386;SDS011;49473;50.772;8.768;2024-01-15T13:11:43;3.27;;;2.97;;
2386;SDS011;49473;50.772;8.768;2024-01-15T13:14:10;2.53;;;2.33;;
2386;SDS011;49473;50.772;8.768;2024-01-15T13:16:38;2.13;;;1.80;;
2386;SDS011;49473;50.772;8.768;2024-01-15T13:19:06;3.23;;;1.77;;
2386;SDS011;49473;50.772;8.768;2024-01-15T13:21:33;2.60;;;2.00;;
2386;SDS011;49473;50.772;8.768;2024-01-15T13:24:00;1.87;;;1.77;;
2386;SDS011;49473;50.772;8.768;2024-01-15T13:26:28;1.17;;;1.07;;
2386;SDS011;49473;50.772;8.768;2024-01-15T13:28:56;1.80;;;1.37;;
2386;SDS011;49473;50.772;8.768;2024-01-15T13:31:23;1.10;;;1.10;;
2386;SDS011;49473;50.772;8.768;2024-01-15T13:33:50;1.53;;;1.20;;
2386;SDS011;49473;50.772;8.768;2024-01-15T13:36:16;2.13;;;1.47;;
2386;SDS011;49473;50.772;8.768;2024-01-15T13:38:43;1.70;;;1.60;;
2386;SDS011;49473;50.772;8.768;2024-01-15T13:41:10;1.40;;;1.40;;
2386;SDS011;49473;50.772;8.768;2024-01-15T13:43:36;1.53;;;1.43;;
2386;SDS011;49473;50.772;8.768;2024-01-15T13:46:05;1.80;;;1.70;;
2386;SDS011;49473;50.772;8.768;2024-01-15T13:48:31;1.10;;;1.10;;
2386;SDS011;49473;50.772;8.768;2024-01-15T13:50:58;3.23;;;1.87;;
2386;SDS011;49473;50.772;8.768;2024-01-15T13:53:25;1.87;;;1.60;;
2386;SDS011;49473;50.772;8.768;2024-01-15T13:55:52;1.60;;;1.50;;
2386;SDS011;49473;50.772;8.768;2024-01-15T13:58:18;1.47;;;1.47;;
2386;SDS011;49473;50.772;8.768;2024-01-15T14:00:46;1.70;;;1.60;;
2386;SDS011;49473;50.772;8.768;2024-01-15T14:03:14;1.70;;;1.60;;
2386;SDS011;49473;50.772;8.768;2024-01-15T14:05:41;1.30;;;1.30;;
2386;SDS011;49473;50.772;8.768;2024-01-15T14:08:08;1.90;;;1.80;;
2386;SDS011;49473;50.772;8.768;2024-01-15T14:10:34;1.47;;;1.37;;
2386;SDS011;49473;50.772;8.768;2024-01-15T14:13:02;1.80;;;1.50;;
2386;SDS011;49473;50.772;8.768;2024-01-15T14:15:29;1.83;;;1.70;;
2386;SDS011;49473;50.772;8.768;2024-01-15T14:17:56;2.07;;;1.57;;
2386;SDS011;49473;50.772;8.768;2024-01-15T14:20:25;1.63;;;1.50;;
2386;SDS011;49473;50.772;8.768;2024-01-15T14:22:52;2.60;;;2.43;;
2386;SDS011;49473;50.772;8.768;2024-01-15T14:25:19;1.80;;;1.70;;
2386;SDS011;49473;50.772;8.768;2024-01-15T14:27:45;1.73;;;1.63;;
2386;SDS011;49473;50.772;8.768;2024-01-15T14:30:13;3.20;;;1.80;;
2386;SDS011;49473;50.772;8.768;2024-01-15T14:32:41;2.40;;;1.90;;
2386;SDS011;49473;50.772;8.768;2024-01-15T14:35:09;2.30;;;2.20;;
2386;SDS011;49473;50.772;8.768;2024-01-15T14:37:39;2.00;;;1.90;;
2386;SDS011;49473;50.772;8.768;2024-01-15T14:40:06;2.07;;;1.97;;
2386;SDS011;49473;50.772;8.768;2024-01-15T14:42:33;2.40;;;2.20;;
2386;SDS011;49473;50.772;8.768;2024-01-15T14:45:01;2.20;;;1.93;;
2386;SDS011;49473;50.772;8.768;2024-01-15T14:47:28;3.53;;;2.07;;
2386;SDS011;49473;50.772;8.768;2024-01-15T14:49:57;2.93;;;2.27;;
2386;SDS011;49473;50.772;8.768;2024-01-15T14:52:23;2.30;;;2.13;;
2386;SDS011;49473;50.772;8.768;2024-01-15T14:54:51;2.63;;;2.43;;
2386;SDS011;49473;50.772;8.768;2024-01-15T14:57:18;2.80;;;2.53;;
2386;SDS011;49473;50.772;8.768;2024-01-15T14:59:45;3.37;;;2.63;;